sensor_id;sensor_type;location;lat;lon;timestamp;P1;durP1;ratioP1;P2;durP2;ratioP2
77146;SDS011;66121;52.584;9.694;2023-12-20T00:02:22;6.70;;;2.40;;
77146;SDS011;66121;52.584;9.694;2023-12-20T00:04:47;6.37;;;2.30;;
77146;SDS011;66121;52.584;9.694;2023-12-20T00:07:12;5.93;;;1.73;;
77146;SDS011;66121;52.584;9.694;2023-12-20T00:09:37;6.17;;;2.30;;
77146;SDS011;66121;52.584;9.694;2023-12-20T00:12:03;9.87;;;3.10;;
77146;SDS011;66121;52.584;9.694;2023-12-20T00:14:28;9.55;;;2.30;;
77146;SDS011;66121;52.584;9.694;2023-12-20T00:16:53;8.03;;;2.47;;
77146;SDS011;66121;52.584;9.694;2023-12-20T00:19:19;7.03;;;2.77;;
77146;SDS011;66121;52.584;9.694;2023-12-20T00:21:44;4.90;;;2.95;;
77146;SDS011;66121;52.584;9.694;2023-12-20T00:24:10;10.20;;;3.05;;
77146;SDS011;66121;52.584;9.694;2023-12-20T00:26:35;12.27;;;3.72;;
77146;SDS011;66121;52.584;9.694;2023-12-20T00:29:01;9.80;;;3.70;;
77146;SDS011;66121;52.584;9.694;2023-12-20T00:31:26;12.02;;;3.72;;
77146;SDS011;66121;52.584;9.694;2023-12-20T00:33:51;10.60;;;3.78;;
77146;SDS011;66121;52.584;9.694;2023-12-20T00:36:16;7.73;;;3.33;;
77146;SDS011;66121;52.584;9.694;2023-12-20T00:38:42;11.82;;;3.38;;
77146;SDS011;66121;52.584;9.694;2023-12-20T00:41:07;12.55;;;3.40;;
77146;SDS011;66121;52.584;9.694;2023-12-20T00:43:32;12.00;;;3.53;;
77146;SDS011;66121;52.584;9.694;2023-12-20T00:45:58;10.05;;;3.10;;
77146;SDS011;66121;52.584;9.694;2023-12-20T00:48:25;9.82;;;3.72;;
77146;SDS011;66121;52.584;9.694;2023-12-20T00:50:52;12.77;;;3.42;;
77146;SDS011;66121;52.584;9.694;2023-12-20T00:53:17;11.75;;;3.17;;
77146;SDS011;66121;52.584;9.694;2023-12-20T00:55:42;6.20;;;3.30;;
77146;SDS011;66121;52.584;9.694;2023-12-20T00:58:09;12.40;;;3.85;;
77146;SDS011;66121;52.584;9.694;2023-12-20T01:00:34;12.70;;;3.60;;
77146;SDS011;66121;52.584;9.694;2023-12-20T01:03:00;10.40;;;3.50;;
77146;SDS011;66121;52.584;9.694;2023-12-20T01:05:25;11.53;;;3.63;;
77146;SDS011;66121;52.584;9.694;2023-12-20T01:07:50;17.65;;;3.63;;
77146;SDS011;66121;52.584;9.694;2023-12-20T01:10:15;9.60;;;3.03;;
77146;SDS011;66121;52.584;9.694;2023-12-20T01:12:42;10.70;;;3.42;;
77146;SDS011;66121;52.584;9.694;2023-12-20T01:15:08;10.02;;;2.78;;
77146;SDS011;66121;52.584;9.694;2023-12-20T01:17:34;10.02;;;2.65;;
77146;SDS011;66121;52.584;9.694;2023-12-20T01:19:59;14.03;;;3.27;;
77146;SDS011;66121;52.584;9.694;2023-12-20T01:22:24;9.00;;;3.10;;
77146;SDS011;66121;52.584;9.694;2023-12-20T01:24:50;11.27;;;3.03;;
77146;SDS011;66121;52.584;9.694;2023-12-20T01:27:15;12.20;;;3.07;;
77146;SDS011;66121;52.584;9.694;2023-12-20T01:29:40;9.30;;;2.90;;
77146;SDS011;66121;52.584;9.694;2023-12-20T01:32:05;9.20;;;2.80;;
77146;SDS011;66121;52.584;9.694;2023-12-20T01:34:31;9.63;;;2.65;;
77146;SDS011;66121;52.584;9.694;2023-12-20T01:36:56;11.02;;;3.22;;
77146;SDS011;66121;52.584;9.694;2023-12-20T01:39:22;9.55;;;2.90;;
77146;SDS011;66121;52.584;9.694;2023-12-20T01:41:47;15.90;;;3.30;;
77146;SDS011;66121;52.584;9.694;2023-12-20T01:44:12;5.77;;;2.47;;
77146;SDS011;66121;52.584;9.694;2023-12-20T01:46:38;14.30;;;4.17;;
77146;SDS011;66121;52.584;9.694;2023-12-20T01:49:03;7.85;;;2.70;;
77146;SDS011;66121;52.584;9.694;2023-12-20T01:51:28;12.00;;;3.00;;
77146;SDS011;66121;52.584;9.694;2023-12-20T01:53:55;10.90;;;2.75;;
77146;SDS011;66121;52.584;9.694;2023-12-20T01:56:22;8.45;;;2.38;;
77146;SDS011;66121;52.584;9.694;2023-12-20T01:58:48;12.60;;;2.95;;
77146;SDS011;66121;52.584;9.694;2023-12-20T02:01:14;11.80;;;2.75;;
77146;SDS011;66121;52.584;9.694;2023-12-20T02:03:41;11.98;;;3.15;;
77146;SDS011;66121;52.584;9.694;2023-12-20T02:06:07;6.22;;;2.60;;
77146;SDS011;66121;52.584;9.694;2023-12-20T02:08:33;11.63;;;2.60;;
77146;SDS011;66121;52.584;9.694;2023-12-20T02:10:59;13.23;;;2.85;;
77146;SDS011;66121;52.584;9.694;2023-12-20T02:13:24;8.20;;;2.60;;
77146;SDS011;66121;52.584;9.694;2023-12-20T02:15:51;11.77;;;3.28;;
77146;SDS011;66121;52.584;9.694;2023-12-20T02:18:17;9.40;;;2.70;;
77146;SDS011;66121;52.584;9.694;2023-12-20T02:20:42;11.00;;;3.23;;
77146;SDS011;66121;52.584;9.694;2023-12-20T02:23:07;10.37;;;3.10;;
77146;SDS011;66121;52.584;9.694;2023-12-20T02:25:32;13.20;;;2.80;;
77146;SDS011;66121;52.584;9.694;2023-12-20T02:27:58;12.67;;;2.87;;
77146;SDS011;66121;52.584;9.694;2023-12-20T02:30:23;10.00;;;2.67;;
77146;SDS011;66121;52.584;9.694;2023-12-20T02:32:49;11.30;;;3.10;;
77146;SDS011;66121;52.584;9.694;2023-12-20T02:35:15;10.82;;;2.92;;
77146;SDS011;66121;52.584;9.694;2023-12-20T02:37:40;13.02;;;3.08;;
77146;SDS011;66121;52.584;9.694;2023-12-20T02:40:06;10.00;;;2.47;;
77146;SDS011;66121;52.584;9.694;2023-12-20T02:42:31;9.45;;;2.63;;
77146;SDS011;66121;52.584;9.694;2023-12-20T02:44:58;10.55;;;2.30;;
77146;SDS011;66121;52.584;9.694;2023-12-20T02:47:23;13.43;;;2.80;;
77146;SDS011;66121;52.584;9.694;2023-12-20T02:49:48;5.87;;;2.57;;
77146;SDS011;66121;52.584;9.694;2023-12-20T02:52:14;9.65;;;2.60;;
77146;SDS011;66121;52.584;9.694;2023-12-20T02:54:39;11.27;;;2.50;;
77146;SDS011;66121;52.584;9.694;2023-12-20T02:57:05;12.47;;;2.90;;
77146;SDS011;66121;52.584;9.694;2023-12-20T02:59:30;18.40;;;3.22;;
77146;SDS011;66121;52.584;9.694;2023-12-20T03:01:56;8.33;;;3.60;;
77146;SDS011;66121;52.584;9.694;2023-12-20T03:04:21;5.73;;;2.40;;
77146;SDS011;66121;52.584;9.694;2023-12-20T03:06:46;7.77;;;2.87;;
77146;SDS011;66121;52.584;9.694;2023-12-20T03:09:12;6.10;;;2.50;;
77146;SDS011;66121;52.584;9.694;2023-12-20T03:11:37;7.97;;;2.70;;
77146;SDS011;66121;52.584;9.694;2023-12-20T03:14:02;13.10;;;3.57;;
77146;SDS011;66121;52.584;9.694;2023-12-20T03:16:27;11.77;;;2.88;;
77146;SDS011;66121;52.584;9.694;2023-12-20T03:18:53;12.30;;;3.40;;
77146;SDS011;66121;52.584;9.694;2023-12-20T03:21:18;9.27;;;2.67;;
77146;SDS011;66121;52.584;9.694;2023-12-20T03:23:43;7.80;;;3.10;;
77146;SDS011;66121;52.584;9.694;2023-12-20T03:26:09;8.43;;;1.90;;
77146;SDS011;66121;52.584;9.694;2023-12-20T03:28:35;13.90;;;2.40;;
77146;SDS011;66121;52.584;9.694;2023-12-20T03:31:01;10.50;;;3.40;;
77146;SDS011;66121;52.584;9.694;2023-12-20T03:33:27;9.20;;;3.35;;
77146;SDS011;66121;52.584;9.694;2023-12-20T03:35:52;11.98;;;3.45;;
77146;SDS011;66121;52.584;9.694;2023-12-20T03:38:18;11.43;;;3.10;;
77146;SDS011;66121;52.584;9.694;2023-12-20T03:40:43;15.67;;;3.43;;
77146;SDS011;66121;52.584;9.694;2023-12-20T03:43:08;11.33;;;3.60;;
77146;SDS011;66121;52.584;9.694;2023-12-20T03:45:33;8.57;;;2.77;;
77146;SDS011;66121;52.584;9.694;2023-12-20T03:47:59;12.20;;;3.33;;
77146;SDS011;66121;52.584;9.694;2023-12-20T03:50:24;8.07;;;3.07;;
77146;SDS011;66121;52.584;9.694;2023-12-20T03:52:50;10.55;;;3.03;;
77146;SDS011;66121;52.584;9.694;2023-12-20T03:55:16;7.78;;;3.08;;
77146;SDS011;66121;52.584;9.694;2023-12-20T03:57:41;13.50;;;3.13;;
77146;SDS011;66121;52.584;9.694;2023-12-20T04:00:07;9.15;;;3.47;;
77146;SDS011;66121;52.584;9.694;2023-12-20T04:02:35;12.25;;;3.15;;
77146;SDS011;66121;52.584;9.694;2023-12-20T04:05:01;8.27;;;3.25;;
77146;SDS011;66121;52.584;9.694;2023-12-20T04:07:26;6.67;;;2.93;;
77146;SDS011;66121;52.584;9.694;2023-12-20T04:09:51;12.90;;;2.87;;
77146;SDS011;66121;52.584;9.694;2023-12-20T04:12:17;6.70;;;2.67;;
77146;SDS011;66121;52.584;9.694;2023-12-20T04:14:42;6.40;;;2.73;;
77146;SDS011;66121;52.584;9.694;2023-12-20T04:17:07;13.07;;;3.10;;
77146;SDS011;66121;52.584;9.694;2023-12-20T04:19:33;11.25;;;3.05;;
77146;SDS011;66121;52.584;9.694;2023-12-20T04:21:58;14.93;;;3.17;;
77146;SDS011;66121;52.584;9.694;2023-12-20T04:24:23;11.40;;;2.73;;
77146;SDS011;66121;52.584;9.694;2023-12-20T04:26:49;10.10;;;2.90;;
77146;SDS011;66121;52.584;9.694;2023-12-20T04:29:14;10.57;;;3.53;;
77146;SDS011;66121;52.584;9.694;2023-12-20T04:31:39;8.80;;;2.73;;
77146;SDS011;66121;52.584;9.694;2023-12-20T04:34:04;10.63;;;3.60;;
77146;SDS011;66121;52.584;9.694;2023-12-20T04:36:30;13.10;;;3.20;;
77146;SDS011;66121;52.584;9.694;2023-12-20T04:38:55;10.63;;;3.05;;
77146;SDS011;66121;52.584;9.694;2023-12-20T04:41:20;12.07;;;3.40;;
77146;SDS011;66121;52.584;9.694;2023-12-20T04:43:46;11.65;;;3.22;;
77146;SDS011;66121;52.584;9.694;2023-12-20T04:46:11;14.57;;;3.40;;
77146;SDS011;66121;52.584;9.694;2023-12-20T04:48:36;12.73;;;4.03;;
77146;SDS011;66121;52.584;9.694;2023-12-20T04:51:01;12.20;;;3.33;;
77146;SDS011;66121;52.584;9.694;2023-12-20T04:53:27;6.88;;;2.80;;
77146;SDS011;66121;52.584;9.694;2023-12-20T04:55:52;18.58;;;4.07;;
77146;SDS011;66121;52.584;9.694;2023-12-20T04:58:18;7.43;;;3.20;;
77146;SDS011;66121;52.584;9.694;2023-12-20T05:00:43;7.63;;;3.38;;
77146;SDS011;66121;52.584;9.694;2023-12-20T05:03:09;12.07;;;3.57;;
77146;SDS011;66121;52.584;9.694;2023-12-20T05:05:34;13.30;;;3.60;;
77146;SDS011;66121;52.584;9.694;2023-12-20T05:08:00;23.77;;;4.53;;
77146;SDS011;66121;52.584;9.694;2023-12-20T05:10:25;12.93;;;3.20;;
77146;SDS011;66121;52.584;9.694;2023-12-20T05:12:52;12.68;;;3.25;;
77146;SDS011;66121;52.584;9.694;2023-12-20T05:15:17;12.93;;;3.83;;
77146;SDS011;66121;52.584;9.694;2023-12-20T05:17:42;11.93;;;3.95;;
77146;SDS011;66121;52.584;9.694;2023-12-20T05:20:08;11.97;;;3.43;;
77146;SDS011;66121;52.584;9.694;2023-12-20T05:22:33;14.10;;;3.40;;
77146;SDS011;66121;52.584;9.694;2023-12-20T05:24:58;8.93;;;3.57;;
77146;SDS011;66121;52.584;9.694;2023-12-20T05:27:24;17.63;;;3.90;;
77146;SDS011;66121;52.584;9.694;2023-12-20T05:29:50;7.63;;;2.90;;
77146;SDS011;66121;52.584;9.694;2023-12-20T05:32:15;7.50;;;3.00;;
77146;SDS011;66121;52.584;9.694;2023-12-20T05:34:42;14.98;;;3.42;;
77146;SDS011;66121;52.584;9.694;2023-12-20T05:37:07;12.23;;;3.07;;
77146;SDS011;66121;52.584;9.694;2023-12-20T05:39:32;9.30;;;2.87;;
77146;SDS011;66121;52.584;9.694;2023-12-20T05:41:57;14.27;;;3.17;;
77146;SDS011;66121;52.584;9.694;2023-12-20T05:44:23;11.07;;;3.00;;
77146;SDS011;66121;52.584;9.694;2023-12-20T05:46:48;13.83;;;3.87;;
77146;SDS011;66121;52.584;9.694;2023-12-20T05:49:13;13.63;;;3.20;;
77146;SDS011;66121;52.584;9.694;2023-12-20T05:51:39;15.82;;;4.55;;
77146;SDS011;66121;52.584;9.694;2023-12-20T05:54:04;8.32;;;3.22;;
77146;SDS011;66121;52.584;9.694;2023-12-20T05:56:29;12.77;;;3.47;;
77146;SDS011;66121;52.584;9.694;2023-12-20T05:58:55;15.80;;;3.93;;
77146;SDS011;66121;52.584;9.694;2023-12-20T06:01:20;7.57;;;3.13;;
77146;SDS011;66121;52.584;9.694;2023-12-20T06:03:45;11.80;;;4.37;;
77146;SDS011;66121;52.584;9.694;2023-12-20T06:06:11;13.30;;;3.42;;
77146;SDS011;66121;52.584;9.694;2023-12-20T06:08:37;8.15;;;3.17;;
77146;SDS011;66121;52.584;9.694;2023-12-20T06:11:03;16.00;;;4.00;;
77146;SDS011;66121;52.584;9.694;2023-12-20T06:13:28;11.47;;;4.30;;
77146;SDS011;66121;52.584;9.694;2023-12-20T06:15:54;13.43;;;4.07;;
77146;SDS011;66121;52.584;9.694;2023-12-20T06:18:19;16.45;;;3.50;;
77146;SDS011;66121;52.584;9.694;2023-12-20T06:20:45;15.13;;;3.43;;
77146;SDS011;66121;52.584;9.694;2023-12-20T06:23:10;18.58;;;4.15;;
77146;SDS011;66121;52.584;9.694;2023-12-20T06:25:35;13.07;;;3.50;;
77146;SDS011;66121;52.584;9.694;2023-12-20T06:28:01;11.40;;;3.67;;
77146;SDS011;66121;52.584;9.694;2023-12-20T06:30:26;13.03;;;3.10;;
77146;SDS011;66121;52.584;9.694;2023-12-20T06:32:52;11.05;;;3.45;;
77146;SDS011;66121;52.584;9.694;2023-12-20T06:35:18;13.13;;;3.50;;
77146;SDS011;66121;52.584;9.694;2023-12-20T06:37:43;14.77;;;3.70;;
77146;SDS011;66121;52.584;9.694;2023-12-20T06:40:09;14.63;;;3.27;;
77146;SDS011;66121;52.584;9.694;2023-12-20T06:42:35;10.10;;;3.97;;
77146;SDS011;66121;52.584;9.694;2023-12-20T06:45:00;19.23;;;3.43;;
77146;SDS011;66121;52.584;9.694;2023-12-20T06:47:26;6.97;;;2.87;;
77146;SDS011;66121;52.584;9.694;2023-12-20T06:49:51;11.70;;;4.35;;
77146;SDS011;66121;52.584;9.694;2023-12-20T06:52:17;15.65;;;3.63;;
77146;SDS011;66121;52.584;9.694;2023-12-20T06:54:42;10.13;;;2.85;;
77146;SDS011;66121;52.584;9.694;2023-12-20T06:57:07;13.13;;;3.53;;
77146;SDS011;66121;52.584;9.694;2023-12-20T06:59:33;17.13;;;3.22;;
77146;SDS011;66121;52.584;9.694;2023-12-20T07:02:03;17.92;;;3.42;;
77146;SDS011;66121;52.584;9.694;2023-12-20T07:04:30;12.27;;;4.05;;
77146;SDS011;66121;52.584;9.694;2023-12-20T07:06:55;4.03;;;2.20;;
77146;SDS011;66121;52.584;9.694;2023-12-20T07:09:22;14.80;;;3.17;;
77146;SDS011;66121;52.584;9.694;2023-12-20T07:11:47;12.25;;;3.10;;
77146;SDS011;66121;52.584;9.694;2023-12-20T07:14:13;17.20;;;3.70;;
77146;SDS011;66121;52.584;9.694;2023-12-20T07:16:38;16.33;;;3.28;;
77146;SDS011;66121;52.584;9.694;2023-12-20T07:19:04;13.18;;;2.90;;
77146;SDS011;66121;52.584;9.694;2023-12-20T07:21:29;15.20;;;3.50;;
77146;SDS011;66121;52.584;9.694;2023-12-20T07:23:54;13.00;;;3.23;;
77146;SDS011;66121;52.584;9.694;2023-12-20T07:26:20;14.10;;;2.87;;
77146;SDS011;66121;52.584;9.694;2023-12-20T07:28:45;18.77;;;3.60;;
77146;SDS011;66121;52.584;9.694;2023-12-20T07:31:11;15.13;;;3.40;;
77146;SDS011;66121;52.584;9.694;2023-12-20T07:33:36;20.52;;;3.40;;
77146;SDS011;66121;52.584;9.694;2023-12-20T07:36:01;20.93;;;4.50;;
77146;SDS011;66121;52.584;9.694;2023-12-20T07:38:27;8.43;;;3.08;;
77146;SDS011;66121;52.584;9.694;2023-12-20T07:40:52;7.70;;;3.20;;
77146;SDS011;66121;52.584;9.694;2023-12-20T07:43:17;16.10;;;3.70;;
77146;SDS011;66121;52.584;9.694;2023-12-20T07:45:43;11.47;;;3.00;;
77146;SDS011;66121;52.584;9.694;2023-12-20T07:48:08;15.32;;;3.38;;
77146;SDS011;66121;52.584;9.694;2023-12-20T07:50:33;10.63;;;3.50;;
77146;SDS011;66121;52.584;9.694;2023-12-20T07:53:01;16.20;;;4.15;;
77146;SDS011;66121;52.584;9.694;2023-12-20T07:55:28;15.48;;;3.35;;
77146;SDS011;66121;52.584;9.694;2023-12-20T07:57:53;13.00;;;3.08;;
77146;SDS011;66121;52.584;9.694;2023-12-20T08:00:19;13.67;;;3.60;;
77146;SDS011;66121;52.584;9.694;2023-12-20T08:02:44;14.32;;;3.63;;
77146;SDS011;66121;52.584;9.694;2023-12-20T08:05:09;13.98;;;3.13;;
77146;SDS011;66121;52.584;9.694;2023-12-20T08:07:35;10.37;;;2.93;;
77146;SDS011;66121;52.584;9.694;2023-12-20T08:10:00;6.43;;;2.70;;
77146;SDS011;66121;52.584;9.694;2023-12-20T08:12:25;12.20;;;3.10;;
77146;SDS011;66121;52.584;9.694;2023-12-20T08:14:52;9.50;;;3.35;;
77146;SDS011;66121;52.584;9.694;2023-12-20T08:17:18;8.30;;;4.15;;
77146;SDS011;66121;52.584;9.694;2023-12-20T08:19:44;8.48;;;3.35;;
77146;SDS011;66121;52.584;9.694;2023-12-20T08:22:09;12.93;;;2.97;;
77146;SDS011;66121;52.584;9.694;2023-12-20T08:24:34;16.70;;;3.30;;
77146;SDS011;66121;52.584;9.694;2023-12-20T08:27:00;13.63;;;2.85;;
77146;SDS011;66121;52.584;9.694;2023-12-20T08:29:25;11.70;;;3.53;;
77146;SDS011;66121;52.584;9.694;2023-12-20T08:31:53;10.57;;;3.50;;
77146;SDS011;66121;52.584;9.694;2023-12-20T08:34:20;15.18;;;3.13;;
77146;SDS011;66121;52.584;9.694;2023-12-20T08:36:45;14.67;;;4.20;;
77146;SDS011;66121;52.584;9.694;2023-12-20T08:39:10;17.37;;;3.37;;
77146;SDS011;66121;52.584;9.694;2023-12-20T08:41:35;13.93;;;3.37;;
77146;SDS011;66121;52.584;9.694;2023-12-20T08:44:02;13.75;;;3.25;;
77146;SDS011;66121;52.584;9.694;2023-12-20T08:46:27;7.60;;;3.83;;
77146;SDS011;66121;52.584;9.694;2023-12-20T08:48:52;11.80;;;3.15;;
77146;SDS011;66121;52.584;9.694;2023-12-20T08:51:18;16.50;;;3.93;;
77146;SDS011;66121;52.584;9.694;2023-12-20T08:53:44;11.90;;;3.40;;
77146;SDS011;66121;52.584;9.694;2023-12-20T08:56:10;11.18;;;2.70;;
77146;SDS011;66121;52.584;9.694;2023-12-20T08:58:35;11.50;;;3.25;;
77146;SDS011;66121;52.584;9.694;2023-12-20T09:01:01;11.57;;;3.40;;
77146;SDS011;66121;52.584;9.694;2023-12-20T09:03:26;11.57;;;4.18;;
77146;SDS011;66121;52.584;9.694;2023-12-20T09:05:51;11.67;;;4.37;;
77146;SDS011;66121;52.584;9.694;2023-12-20T09:08:17;13.75;;;3.95;;
77146;SDS011;66121;52.584;9.694;2023-12-20T09:10:42;6.82;;;2.97;;
77146;SDS011;66121;52.584;9.694;2023-12-20T09:13:07;21.63;;;6.17;;
77146;SDS011;66121;52.584;9.694;2023-12-20T09:15:33;7.47;;;3.00;;
77146;SDS011;66121;52.584;9.694;2023-12-20T09:17:59;11.57;;;3.10;;
77146;SDS011;66121;52.584;9.694;2023-12-20T09:20:24;5.60;;;2.40;;
77146;SDS011;66121;52.584;9.694;2023-12-20T09:22:49;8.43;;;3.70;;
77146;SDS011;66121;52.584;9.694;2023-12-20T09:25:15;5.23;;;2.87;;
77146;SDS011;66121;52.584;9.694;2023-12-20T09:27:42;10.43;;;3.20;;
77146;SDS011;66121;52.584;9.694;2023-12-20T09:30:08;15.55;;;4.28;;
77146;SDS011;66121;52.584;9.694;2023-12-20T09:32:34;11.05;;;3.30;;
77146;SDS011;66121;52.584;9.694;2023-12-20T09:34:59;12.38;;;3.13;;
77146;SDS011;66121;52.584;9.694;2023-12-20T09:37:28;9.10;;;3.60;;
77146;SDS011;66121;52.584;9.694;2023-12-20T09:39:53;11.13;;;4.25;;
77146;SDS011;66121;52.584;9.694;2023-12-20T09:42:21;12.85;;;3.90;;
77146;SDS011;66121;52.584;9.694;2023-12-20T09:44:54;11.73;;;3.63;;
77146;SDS011;66121;52.584;9.694;2023-12-20T09:47:20;11.63;;;4.38;;
77146;SDS011;66121;52.584;9.694;2023-12-20T09:49:49;16.42;;;3.80;;
77146;SDS011;66121;52.584;9.694;2023-12-20T09:52:15;17.05;;;4.43;;
77146;SDS011;66121;52.584;9.694;2023-12-20T09:54:43;15.70;;;3.97;;
77146;SDS011;66121;52.584;9.694;2023-12-20T09:57:09;9.25;;;4.30;;
77146;SDS011;66121;52.584;9.694;2023-12-20T09:59:35;10.57;;;3.47;;
77146;SDS011;66121;52.584;9.694;2023-12-20T10:02:00;17.37;;;4.70;;
77146;SDS011;66121;52.584;9.694;2023-12-20T10:04:28;11.65;;;3.63;;
77146;SDS011;66121;52.584;9.694;2023-12-20T10:06:56;15.00;;;4.15;;
77146;SDS011;66121;52.584;9.694;2023-12-20T10:09:22;13.83;;;4.10;;
77146;SDS011;66121;52.584;9.694;2023-12-20T10:11:47;12.68;;;3.53;;
77146;SDS011;66121;52.584;9.694;2023-12-20T10:14:12;15.40;;;3.50;;
77146;SDS011;66121;52.584;9.694;2023-12-20T10:16:39;13.75;;;3.33;;
77146;SDS011;66121;52.584;9.694;2023-12-20T10:19:05;7.45;;;2.80;;
77146;SDS011;66121;52.584;9.694;2023-12-20T10:21:31;9.63;;;2.97;;
77146;SDS011;66121;52.584;9.694;2023-12-20T10:23:56;13.23;;;3.77;;
77146;SDS011;66121;52.584;9.694;2023-12-20T10:26:23;8.40;;;2.58;;
77146;SDS011;66121;52.584;9.694;2023-12-20T10:29:10;14.35;;;3.80;;
77146;SDS011;66121;52.584;9.694;2023-12-20T10:31:35;7.32;;;2.97;;
77146;SDS011;66121;52.584;9.694;2023-12-20T10:34:01;10.00;;;3.22;;
77146;SDS011;66121;52.584;9.694;2023-12-20T10:36:33;8.23;;;3.05;;
77146;SDS011;66121;52.584;9.694;2023-12-20T10:38:59;5.60;;;2.80;;
77146;SDS011;66121;52.584;9.694;2023-12-20T10:41:26;19.33;;;4.20;;
77146;SDS011;66121;52.584;9.694;2023-12-20T10:44:11;9.15;;;3.15;;
77146;SDS011;66121;52.584;9.694;2023-12-20T10:46:38;8.20;;;2.53;;
77146;SDS011;66121;52.584;9.694;2023-12-20T10:49:04;12.38;;;3.17;;
77146;SDS011;66121;52.584;9.694;2023-12-20T10:51:31;16.88;;;3.40;;
77146;SDS011;66121;52.584;9.694;2023-12-20T10:53:59;12.30;;;3.63;;
77146;SDS011;66121;52.584;9.694;2023-12-20T10:56:25;6.18;;;3.05;;
77146;SDS011;66121;52.584;9.694;2023-12-20T10:58:57;6.45;;;2.55;;
77146;SDS011;66121;52.584;9.694;2023-12-20T11:01:25;9.35;;;2.75;;
77146;SDS011;66121;52.584;9.694;2023-12-20T11:03:54;11.02;;;2.55;;
77146;SDS011;66121;52.584;9.694;2023-12-20T11:06:36;10.48;;;2.60;;
77146;SDS011;66121;52.584;9.694;2023-12-20T11:11:59;4.90;;;1.92;;
77146;SDS011;66121;52.584;9.694;2023-12-20T11:14:33;10.32;;;2.70;;
77146;SDS011;66121;52.584;9.694;2023-12-20T11:17:11;5.00;;;2.03;;
77146;SDS011;66121;52.584;9.694;2023-12-20T11:22:25;9.23;;;2.40;;
77146;SDS011;66121;52.584;9.694;2023-12-20T11:24:51;7.10;;;2.05;;
77146;SDS011;66121;52.584;9.694;2023-12-20T11:27:18;5.47;;;2.20;;
77146;SDS011;66121;52.584;9.694;2023-12-20T11:29:58;8.30;;;1.98;;
77146;SDS011;66121;52.584;9.694;2023-12-20T11:34:54;7.75;;;2.03;;
77146;SDS011;66121;52.584;9.694;2023-12-20T11:37:20;4.22;;;1.60;;
77146;SDS011;66121;52.584;9.694;2023-12-20T11:39:54;4.93;;;1.50;;
77146;SDS011;66121;52.584;9.694;2023-12-20T11:42:20;7.70;;;2.17;;
77146;SDS011;66121;52.584;9.694;2023-12-20T11:44:46;3.37;;;1.60;;
77146;SDS011;66121;52.584;9.694;2023-12-20T11:47:12;9.17;;;1.70;;
77146;SDS011;66121;52.584;9.694;2023-12-20T11:49:38;4.75;;;1.80;;
77146;SDS011;66121;52.584;9.694;2023-12-20T11:52:04;7.53;;;2.10;;
77146;SDS011;66121;52.584;9.694;2023-12-20T11:54:30;6.25;;;1.65;;
77146;SDS011;66121;52.584;9.694;2023-12-20T11:56:55;7.60;;;2.05;;
77146;SDS011;66121;52.584;9.694;2023-12-20T11:59:20;7.40;;;1.90;;
77146;SDS011;66121;52.584;9.694;2023-12-20T12:01:49;3.83;;;1.53;;
77146;SDS011;66121;52.584;9.694;2023-12-20T12:04:16;3.10;;;1.85;;
77146;SDS011;66121;52.584;9.694;2023-12-20T12:06:42;7.45;;;1.60;;
77146;SDS011;66121;52.584;9.694;2023-12-20T12:09:08;5.97;;;1.88;;
77146;SDS011;66121;52.584;9.694;2023-12-20T12:11:33;3.73;;;1.83;;
77146;SDS011;66121;52.584;9.694;2023-12-20T12:13:59;5.80;;;1.50;;
77146;SDS011;66121;52.584;9.694;2023-12-20T12:16:25;4.45;;;1.63;;
77146;SDS011;66121;52.584;9.694;2023-12-20T12:18:57;4.88;;;1.70;;
77146;SDS011;66121;52.584;9.694;2023-12-20T12:21:22;6.97;;;1.75;;
77146;SDS011;66121;52.584;9.694;2023-12-20T12:23:48;5.82;;;1.73;;
77146;SDS011;66121;52.584;9.694;2023-12-20T12:26:13;5.75;;;1.88;;
77146;SDS011;66121;52.584;9.694;2023-12-20T12:28:42;2.85;;;1.40;;
77146;SDS011;66121;52.584;9.694;2023-12-20T12:31:08;4.07;;;1.70;;
77146;SDS011;66121;52.584;9.694;2023-12-20T12:33:38;5.50;;;1.67;;
77146;SDS011;66121;52.584;9.694;2023-12-20T12:36:03;6.03;;;1.30;;
77146;SDS011;66121;52.584;9.694;2023-12-20T12:38:32;8.73;;;1.75;;
77146;SDS011;66121;52.584;9.694;2023-12-20T12:40:57;5.45;;;1.90;;
77146;SDS011;66121;52.584;9.694;2023-12-20T12:43:23;4.53;;;1.70;;
77146;SDS011;66121;52.584;9.694;2023-12-20T12:45:49;5.03;;;1.63;;
77146;SDS011;66121;52.584;9.694;2023-12-20T12:48:14;10.32;;;2.13;;
77146;SDS011;66121;52.584;9.694;2023-12-20T12:50:39;3.72;;;1.02;;
77146;SDS011;66121;52.584;9.694;2023-12-20T12:53:05;3.33;;;1.40;;
77146;SDS011;66121;52.584;9.694;2023-12-20T12:55:30;3.03;;;1.20;;
77146;SDS011;66121;52.584;9.694;2023-12-20T12:57:55;3.70;;;1.30;;
77146;SDS011;66121;52.584;9.694;2023-12-20T13:00:21;3.67;;;1.02;;
77146;SDS011;66121;52.584;9.694;2023-12-20T13:02:46;3.58;;;1.17;;
77146;SDS011;66121;52.584;9.694;2023-12-20T13:05:12;5.85;;;1.63;;
77146;SDS011;66121;52.584;9.694;2023-12-20T13:07:37;5.00;;;1.40;;
77146;SDS011;66121;52.584;9.694;2023-12-20T13:10:04;3.47;;;1.15;;
77146;SDS011;66121;52.584;9.694;2023-12-20T13:12:30;5.75;;;1.60;;
77146;SDS011;66121;52.584;9.694;2023-12-20T13:14:57;3.90;;;1.02;;
77146;SDS011;66121;52.584;9.694;2023-12-20T13:17:22;5.80;;;1.63;;
77146;SDS011;66121;52.584;9.694;2023-12-20T13:19:47;3.70;;;1.00;;
77146;SDS011;66121;52.584;9.694;2023-12-20T13:22:12;6.47;;;1.43;;
77146;SDS011;66121;52.584;9.694;2023-12-20T13:24:38;4.60;;;1.13;;
77146;SDS011;66121;52.584;9.694;2023-12-20T13:27:03;5.13;;;1.00;;
77146;SDS011;66121;52.584;9.694;2023-12-20T13:29:28;6.03;;;1.23;;
77146;SDS011;66121;52.584;9.694;2023-12-20T13:31:54;6.78;;;1.38;;
77146;SDS011;66121;52.584;9.694;2023-12-20T13:34:19;5.57;;;1.38;;
77146;SDS011;66121;52.584;9.694;2023-12-20T13:36:45;5.07;;;1.23;;
77146;SDS011;66121;52.584;9.694;2023-12-20T13:39:12;4.28;;;1.50;;
77146;SDS011;66121;52.584;9.694;2023-12-20T13:41:37;4.10;;;1.40;;
77146;SDS011;66121;52.584;9.694;2023-12-20T13:44:02;3.07;;;1.50;;
77146;SDS011;66121;52.584;9.694;2023-12-20T13:46:28;6.50;;;1.80;;
77146;SDS011;66121;52.584;9.694;2023-12-20T13:48:54;8.05;;;1.40;;
77146;SDS011;66121;52.584;9.694;2023-12-20T13:51:19;4.13;;;1.48;;
77146;SDS011;66121;52.584;9.694;2023-12-20T13:53:45;8.25;;;1.73;;
77146;SDS011;66121;52.584;9.694;2023-12-20T13:56:11;7.35;;;1.60;;
77146;SDS011;66121;52.584;9.694;2023-12-20T13:58:36;6.17;;;1.57;;
77146;SDS011;66121;52.584;9.694;2023-12-20T14:01:01;4.63;;;1.60;;
77146;SDS011;66121;52.584;9.694;2023-12-20T14:03:27;9.35;;;1.90;;
77146;SDS011;66121;52.584;9.694;2023-12-20T14:05:52;3.37;;;1.43;;
77146;SDS011;66121;52.584;9.694;2023-12-20T14:08:17;8.57;;;1.67;;
77146;SDS011;66121;52.584;9.694;2023-12-20T14:10:43;7.47;;;2.07;;
77146;SDS011;66121;52.584;9.694;2023-12-20T14:13:08;5.90;;;1.77;;
77146;SDS011;66121;52.584;9.694;2023-12-20T14:15:33;4.80;;;1.70;;
77146;SDS011;66121;52.584;9.694;2023-12-20T14:18:02;5.63;;;1.63;;
77146;SDS011;66121;52.584;9.694;2023-12-20T14:20:31;6.40;;;1.33;;
77146;SDS011;66121;52.584;9.694;2023-12-20T14:22:59;5.97;;;1.30;;
77146;SDS011;66121;52.584;9.694;2023-12-20T14:25:25;5.18;;;1.83;;
77146;SDS011;66121;52.584;9.694;2023-12-20T14:27:50;5.93;;;1.65;;
77146;SDS011;66121;52.584;9.694;2023-12-20T14:30:15;5.10;;;1.60;;
77146;SDS011;66121;52.584;9.694;2023-12-20T14:32:42;6.18;;;1.90;;
77146;SDS011;66121;52.584;9.694;2023-12-20T14:35:07;6.30;;;1.92;;
77146;SDS011;66121;52.584;9.694;2023-12-20T14:37:33;3.83;;;1.88;;
77146;SDS011;66121;52.584;9.694;2023-12-20T14:39:59;4.80;;;1.60;;
77146;SDS011;66121;52.584;9.694;2023-12-20T14:42:24;7.27;;;1.50;;